createdAt,value
2023-04-18T00:00:42.360Z,85.65
2023-04-18T00:03:09.007Z,85.92
2023-04-18T00:05:35.549Z,85.88
2023-04-18T00:08:02.009Z,85.83
2023-04-18T00:10:28.601Z,85.70
2023-04-18T00:12:55.166Z,85.76
2023-04-18T00:15:21.514Z,85.69
2023-04-18T00:17:47.908Z,85.69
2023-04-18T00:20:14.262Z,85.86
2023-04-18T00:22:40.600Z,85.90
2023-04-18T00:25:06.934Z,85.51
2023-04-18T00:27:33.271Z,85.71
2023-04-18T00:29:59.854Z,85.78
2023-04-18T00:32:26.299Z,85.72
2023-04-18T00:34:52.665Z,85.77
2023-04-18T00:37:19.046Z,86.01
2023-04-18T00:39:45.378Z,86.20
2023-04-18T00:42:11.751Z,85.91
2023-04-18T00:44:38.108Z,86.10
2023-04-18T00:47:04.436Z,85.79
2023-04-18T00:49:30.758Z,86.18
2023-04-18T00:51:57.322Z,85.88
2023-04-18T00:54:23.681Z,86.02
2023-04-18T00:56:50.135Z,85.85
2023-04-18T00:59:16.503Z,85.99
2023-04-18T01:01:42.904Z,85.92
2023-04-18T01:04:09.425Z,86.00
2023-04-18T01:06:35.837Z,85.48
2023-04-18T01:09:02.244Z,86.06
2023-04-18T01:11:28.608Z,85.51
2023-04-18T01:13:55.168Z,85.85
2023-04-18T01:16:21.583Z,86.09
2023-04-18T01:18:47.932Z,86.19
2023-04-18T01:21:14.289Z,86.14
2023-04-18T01:23:40.673Z,86.05
2023-04-18T01:26:07.278Z,86.13
2023-04-18T01:28:33.655Z,86.23
2023-04-18T01:31:00.119Z,86.32
2023-04-18T01:33:26.557Z,85.99
2023-04-18T01:35:53.131Z,86.03
2023-04-18T01:38:19.495Z,86.24
2023-04-18T01:40:45.846Z,86.51
2023-04-18T01:43:12.200Z,86.17
2023-04-18T01:45:38.551Z,86.03
2023-04-18T01:48:05.120Z,86.24
2023-04-18T01:50:31.485Z,86.32
2023-04-18T01:52:57.835Z,86.42
2023-04-18T01:55:24.220Z,86.06
2023-04-18T01:57:50.578Z,85.88
2023-04-18T02:00:16.980Z,86.05
2023-04-18T02:02:43.519Z,86.08
2023-04-18T02:05:10.117Z,86.20
2023-04-18T02:07:36.466Z,86.12
2023-04-18T02:10:02.843Z,86.25
2023-04-18T02:12:29.440Z,86.29
2023-04-18T02:14:55.794Z,86.25
2023-04-18T02:17:22.192Z,86.48
2023-04-18T02:19:48.606Z,86.51
2023-04-18T02:22:14.982Z,85.96
2023-04-18T02:24:41.388Z,86.17
2023-04-18T02:27:07.766Z,86.39
2023-04-18T02:29:34.226Z,86.52
2023-04-18T02:32:00.641Z,86.43
2023-04-18T02:34:27.048Z,86.47
2023-04-18T02:36:53.447Z,86.40
2023-04-18T02:39:19.831Z,86.49
2023-04-18T02:41:46.219Z,86.20
2023-04-18T02:44:12.773Z,86.37
2023-04-18T02:46:40.091Z,86.51
2023-04-18T02:49:06.455Z,86.38
2023-04-18T02:51:33.015Z,86.48
2023-04-18T02:53:59.349Z,86.56
2023-04-18T02:56:25.697Z,86.40
2023-04-18T02:58:52.090Z,86.40
2023-04-18T03:01:18.522Z,86.38
2023-04-18T03:03:44.895Z,86.30
2023-04-18T03:06:11.241Z,86.15
2023-04-18T03:08:37.801Z,86.30
2023-04-18T03:11:04.182Z,86.09
2023-04-18T03:13:30.785Z,86.44
2023-04-18T03:15:57.464Z,86.44
2023-04-18T03:18:23.865Z,86.38
2023-04-18T03:20:50.436Z,86.46
2023-04-18T03:23:16.827Z,86.51
2023-04-18T03:25:43.179Z,86.38
2023-04-18T03:28:09.542Z,86.24
2023-04-18T03:30:35.894Z,86.36
2023-04-18T03:33:02.496Z,86.27
2023-04-18T03:35:28.923Z,86.40
2023-04-18T03:37:55.287Z,86.45
2023-04-18T03:40:21.869Z,86.30
2023-04-18T03:42:48.469Z,86.38
2023-04-18T03:45:15.058Z,86.30
2023-04-18T03:47:41.477Z,86.23
2023-04-18T03:50:07.885Z,86.28
2023-04-18T03:52:34.251Z,86.50
2023-04-18T03:55:00.670Z,86.53
2023-04-18T03:57:28.021Z,86.44
2023-04-18T03:59:54.378Z,86.50
2023-04-18T04:02:21.085Z,86.27
2023-04-18T04:04:47.598Z,86.30
2023-04-18T04:07:14.047Z,86.46
2023-04-18T04:09:40.407Z,86.43
2023-04-18T04:12:07.003Z,86.31
2023-04-18T04:14:33.588Z,86.47
2023-04-18T04:17:00.214Z,86.12
2023-04-18T04:19:26.583Z,86.20
2023-04-18T04:21:53.174Z,86.43
2023-04-18T04:24:20.433Z,86.24
2023-04-18T04:26:46.850Z,86.03
2023-04-18T04:29:13.214Z,86.13
2023-04-18T04:31:39.568Z,86.16
2023-04-18T04:34:05.971Z,85.89
2023-04-18T04:36:32.328Z,86.48
2023-04-18T04:38:58.673Z,86.27
2023-04-18T04:41:25.049Z,85.92
2023-04-18T04:43:51.654Z,86.19
2023-04-18T04:46:18.158Z,86.11
2023-04-18T04:48:44.566Z,86.00
2023-04-18T04:51:10.919Z,86.30
2023-04-18T04:53:37.299Z,86.13
2023-04-18T04:56:03.683Z,86.19
2023-04-18T04:58:30.055Z,86.24
2023-04-18T05:00:56.482Z,86.30
2023-04-18T05:03:23.348Z,85.79
2023-04-18T05:05:50.143Z,86.33
2023-04-18T05:08:16.519Z,85.99
2023-04-18T05:10:42.915Z,85.98
2023-04-18T05:13:09.321Z,86.28
2023-04-18T05:15:35.699Z,85.95
2023-04-18T05:18:02.205Z,86.18
2023-04-18T05:20:28.645Z,86.00
2023-04-18T05:22:55.046Z,85.84
2023-04-18T05:25:21.396Z,86.05
2023-04-18T05:27:47.760Z,86.32
2023-04-18T05:30:14.122Z,86.19
2023-04-18T05:32:41.075Z,86.21
2023-04-18T05:35:07.504Z,85.91
2023-04-18T05:37:33.898Z,85.72
2023-04-18T05:40:01.280Z,86.32
2023-04-18T05:42:28.011Z,85.92
2023-04-18T05:44:54.639Z,86.14
2023-04-18T05:47:21.120Z,86.27
2023-04-18T05:49:47.533Z,86.27
2023-04-18T05:52:16.915Z,85.75
2023-04-18T05:54:43.531Z,86.03
2023-04-18T05:57:09.961Z,86.09
2023-04-18T05:59:36.335Z,86.10
2023-04-18T06:02:02.754Z,85.86
2023-04-18T06:04:29.272Z,85.89
2023-04-18T06:06:56.200Z,86.16
2023-04-18T06:09:22.552Z,86.24
2023-04-18T06:11:48.906Z,85.66
2023-04-18T06:14:15.441Z,85.73
2023-04-18T06:16:44.156Z,85.56
2023-04-18T06:19:10.555Z,85.83
2023-04-18T06:21:36.910Z,86.08
2023-04-18T06:24:03.251Z,85.84
2023-04-18T06:26:29.640Z,85.74
2023-04-18T06:28:56.037Z,86.15
2023-04-18T06:31:22.434Z,85.69
2023-04-18T06:33:48.807Z,86.23
2023-04-18T06:36:15.167Z,86.03
2023-04-18T06:38:41.582Z,85.49
2023-04-18T06:41:08.226Z,86.38
2023-04-18T06:43:34.617Z,86.11
2023-04-18T06:46:01.479Z,85.81
2023-04-18T06:48:28.180Z,85.86
2023-04-18T06:50:54.545Z,85.92
2023-04-18T06:53:20.893Z,86.09
2023-04-18T06:55:47.251Z,86.12
2023-04-18T06:58:13.649Z,86.12
2023-04-18T07:00:40.037Z,85.79
2023-04-18T07:03:09.503Z,85.75
2023-04-18T07:05:37.433Z,86.05
2023-04-18T07:08:03.799Z,85.76
2023-04-18T07:10:30.177Z,86.24
2023-04-18T07:12:56.591Z,86.04
2023-04-18T07:15:22.971Z,86.00
2023-04-18T07:17:49.369Z,86.03
2023-04-18T07:20:15.760Z,85.88
2023-04-18T07:22:42.124Z,86.44
2023-04-18T07:25:08.498Z,86.08
2023-04-18T07:27:35.115Z,86.05
2023-04-18T07:30:04.544Z,86.27
2023-04-18T07:32:30.934Z,86.05
2023-04-18T07:34:57.292Z,85.18
2023-04-18T07:37:23.671Z,85.25
2023-04-18T07:39:50.043Z,85.89
2023-04-18T07:42:17.937Z,86.55
2023-04-18T07:44:44.324Z,86.43
2023-04-18T07:47:11.496Z,86.47
2023-04-18T07:49:37.845Z,85.08
2023-04-18T07:52:04.147Z,84.47
2023-04-18T07:54:31.041Z,84.62
2023-04-18T07:56:57.399Z,85.58
2023-04-18T07:59:23.783Z,85.07
2023-04-18T08:01:50.652Z,84.50
2023-04-18T08:04:18.153Z,85.00
2023-04-18T08:06:44.662Z,84.93
2023-04-18T08:09:11.125Z,84.86
2023-04-18T08:11:37.562Z,84.44
2023-04-18T08:14:04.178Z,84.46
2023-04-18T08:16:30.571Z,85.32
2023-04-18T08:18:57.769Z,84.99
2023-04-18T08:21:24.120Z,85.14
2023-04-18T08:23:51.173Z,84.86
2023-04-18T08:26:17.521Z,84.00
2023-04-18T08:28:45.904Z,84.03
2023-04-18T08:31:12.800Z,84.60
2023-04-18T08:33:39.228Z,84.56
2023-04-18T08:36:05.602Z,84.86
2023-04-18T08:38:32.457Z,84.28
2023-04-18T08:40:58.810Z,84.41
2023-04-18T08:43:25.935Z,84.71
2023-04-18T08:45:54.134Z,85.09
2023-04-18T08:48:20.497Z,85.11
2023-04-18T08:50:46.884Z,85.14
2023-04-18T08:53:14.956Z,82.76
2023-04-18T08:55:41.334Z,84.32
2023-04-18T08:58:07.696Z,85.00
2023-04-18T09:00:34.130Z,85.52
2023-04-18T09:03:00.607Z,85.34
2023-04-18T09:05:27.082Z,85.60
2023-04-18T09:07:53.436Z,85.64
2023-04-18T09:10:19.796Z,85.41
2023-04-18T09:12:46.193Z,85.37
2023-04-18T09:15:13.346Z,85.15
2023-04-18T09:17:39.774Z,84.94
2023-04-18T09:20:06.154Z,85.01
2023-04-18T09:22:32.526Z,84.71
2023-04-18T09:24:59.160Z,84.65
2023-04-18T09:27:25.533Z,84.59
2023-04-18T09:29:51.908Z,84.13
2023-04-18T09:32:18.300Z,84.18
2023-04-18T09:34:44.697Z,84.37
2023-04-18T09:37:11.116Z,84.77
2023-04-18T09:39:37.776Z,84.94
2023-04-18T09:42:04.349Z,84.90
2023-04-18T09:44:30.692Z,85.13
2023-04-18T09:46:57.044Z,85.21
2023-04-18T09:49:23.556Z,84.90
2023-04-18T09:51:49.944Z,83.49
2023-04-18T09:54:16.435Z,83.14
2023-04-18T09:56:42.894Z,82.89
2023-04-18T09:59:09.371Z,82.21
2023-04-18T10:01:35.857Z,83.44
2023-04-18T10:04:02.405Z,83.87
2023-04-18T10:06:28.842Z,84.10
2023-04-18T10:08:55.250Z,84.36
2023-04-18T10:11:21.658Z,84.54
2023-04-18T10:13:48.036Z,84.58
2023-04-18T10:16:14.465Z,84.30
2023-04-18T10:18:40.920Z,84.21
2023-04-18T10:21:07.289Z,84.44
2023-04-18T10:23:33.657Z,84.61
2023-04-18T10:26:00.044Z,84.83
2023-04-18T10:28:26.400Z,84.87
2023-04-18T10:30:52.803Z,85.16
2023-04-18T10:33:29.411Z,85.31
2023-04-18T10:35:58.157Z,84.88
2023-04-18T10:38:24.575Z,84.69
2023-04-18T10:40:50.972Z,84.93
2023-04-18T10:43:17.352Z,85.36
2023-04-18T10:45:43.758Z,85.49
2023-04-18T10:48:10.198Z,85.43
2023-04-18T10:50:36.580Z,85.58
2023-04-18T10:53:03.021Z,85.63
2023-04-18T10:55:29.413Z,85.48
2023-04-18T10:57:56.058Z,85.47
2023-04-18T11:00:22.478Z,85.24
2023-04-18T11:02:49.345Z,85.57
2023-04-18T11:05:15.873Z,85.42
2023-04-18T11:07:42.269Z,85.21
2023-04-18T11:10:08.653Z,84.98
2023-04-18T11:12:36.320Z,85.35
2023-04-18T11:15:02.930Z,85.36
2023-04-18T11:17:29.348Z,85.22
2023-04-18T11:19:55.721Z,85.10
2023-04-18T11:22:22.058Z,85.49
2023-04-18T11:24:48.405Z,85.57
2023-04-18T11:27:14.767Z,85.55
2023-04-18T11:29:41.124Z,85.54
2023-04-18T11:32:07.586Z,85.55
2023-04-18T11:34:34.014Z,85.53
2023-04-18T11:37:00.393Z,85.57
2023-04-18T11:39:27.041Z,85.60
2023-04-18T11:41:53.389Z,85.53
2023-04-18T11:44:19.779Z,85.47
2023-04-18T11:46:46.154Z,85.43
2023-04-18T11:49:12.524Z,85.38
2023-04-18T11:51:38.952Z,85.35
2023-04-18T11:54:05.383Z,85.27
2023-04-18T11:56:32.273Z,85.36
2023-04-18T11:58:59.865Z,84.81
2023-04-18T12:01:26.214Z,84.55
2023-04-18T12:03:52.737Z,84.61
2023-04-18T12:06:19.800Z,84.70
2023-04-18T12:08:46.257Z,84.84
2023-04-18T12:11:12.626Z,85.06
2023-04-18T12:13:38.991Z,85.13
2023-04-18T12:16:05.370Z,85.38
2023-04-18T12:18:31.756Z,85.60
2023-04-18T12:20:58.136Z,85.71
2023-04-18T12:23:24.833Z,85.89
2023-04-18T12:25:51.258Z,85.41
2023-04-18T12:28:17.608Z,84.61
2023-04-18T12:30:43.979Z,84.34
2023-04-18T12:33:10.394Z,84.71
2023-04-18T12:35:36.814Z,84.77
2023-04-18T12:38:03.210Z,84.66
2023-04-18T12:40:29.800Z,84.90
2023-04-18T12:42:56.164Z,84.35
2023-04-18T12:45:22.524Z,84.71
2023-04-18T12:47:48.987Z,84.64
2023-04-18T12:50:15.400Z,85.26
2023-04-18T12:52:41.805Z,85.13
2023-04-18T12:55:08.174Z,85.28
2023-04-18T12:57:34.782Z,85.26
2023-04-18T13:00:01.156Z,85.26
2023-04-18T13:02:27.665Z,85.70
2023-04-18T13:04:54.115Z,85.68
2023-04-18T13:07:20.524Z,85.16
2023-04-18T13:09:46.903Z,85.23
2023-04-18T13:12:13.242Z,85.42
2023-04-18T13:14:39.855Z,85.66
2023-04-18T13:17:06.321Z,85.53
2023-04-18T13:19:32.785Z,85.25
2023-04-18T13:21:59.172Z,85.55
2023-04-18T13:24:25.560Z,85.79
2023-04-18T13:26:52.154Z,86.00
2023-04-18T13:29:18.521Z,86.12
2023-04-18T13:31:44.921Z,85.90
2023-04-18T13:34:14.321Z,86.06
2023-04-18T13:36:40.698Z,86.22
2023-04-18T13:39:07.572Z,86.26
2023-04-18T13:41:33.930Z,86.24
2023-04-18T13:44:00.287Z,86.29
2023-04-18T13:46:26.790Z,86.29
2023-04-18T13:48:53.207Z,86.31
2023-04-18T13:51:19.811Z,86.43
2023-04-18T13:53:46.187Z,86.40
2023-04-18T13:56:12.562Z,86.39
2023-04-18T13:58:38.933Z,86.33
2023-04-18T14:01:05.316Z,86.23
2023-04-18T14:03:31.889Z,86.28
2023-04-18T14:05:58.752Z,86.30
2023-04-18T14:08:25.325Z,86.29
2023-04-18T14:10:51.681Z,86.23
2023-04-18T14:13:18.063Z,86.22
2023-04-18T14:15:44.511Z,86.05
2023-04-18T14:18:10.991Z,86.09
2023-04-18T14:20:37.375Z,86.12
2023-04-18T14:23:03.762Z,86.17
2023-04-18T14:25:30.391Z,86.07
2023-04-18T14:27:57.397Z,86.06
2023-04-18T14:30:23.909Z,85.99
2023-04-18T14:32:50.349Z,86.01
2023-04-18T14:35:16.721Z,86.01
2023-04-18T14:37:43.114Z,86.03
2023-04-18T14:40:09.474Z,85.90
2023-04-18T14:42:35.844Z,86.06
2023-04-18T14:45:02.253Z,86.04
2023-04-18T14:47:29.004Z,85.98
2023-04-18T14:49:55.417Z,86.02
2023-04-18T14:52:21.804Z,86.02
2023-04-18T14:54:48.178Z,86.01
2023-04-18T14:57:14.535Z,86.00
2023-04-18T14:59:40.911Z,85.99
2023-04-18T15:02:07.401Z,85.98
2023-04-18T15:04:34.214Z,86.05
2023-04-18T15:07:00.622Z,86.03
2023-04-18T15:09:26.970Z,86.07
2023-04-18T15:11:53.317Z,86.02
2023-04-18T15:14:19.721Z,86.01
2023-04-18T15:16:46.144Z,86.03
2023-04-18T15:19:12.559Z,86.05
2023-04-18T15:21:38.922Z,86.03
2023-04-18T15:24:05.286Z,86.12
2023-04-18T15:26:33.121Z,86.05
2023-04-18T15:28:59.790Z,86.01
2023-04-18T15:31:26.162Z,85.85
2023-04-18T15:33:52.541Z,85.89
2023-04-18T15:36:18.952Z,85.83
2023-04-18T15:38:45.333Z,85.77
2023-04-18T15:41:11.914Z,85.73
2023-04-18T15:43:38.297Z,85.73
2023-04-18T15:46:04.684Z,85.71
2023-04-18T15:48:31.055Z,85.66
2023-04-18T15:50:57.402Z,85.62
2023-04-18T15:53:24.007Z,85.71
2023-04-18T15:55:50.359Z,85.57
2023-04-18T15:58:16.711Z,85.56
2023-04-18T16:00:43.316Z,85.71
2023-04-18T16:03:09.893Z,85.53
2023-04-18T16:05:36.410Z,85.63
2023-04-18T16:08:02.820Z,85.75
2023-04-18T16:10:29.217Z,85.89
2023-04-18T16:12:55.808Z,85.94
2023-04-18T16:15:22.216Z,85.83
2023-04-18T16:17:48.589Z,85.96
2023-04-18T16:20:14.977Z,85.85
2023-04-18T16:22:41.336Z,85.78
2023-04-18T16:25:07.912Z,85.86
2023-04-18T16:27:34.291Z,85.88
2023-04-18T16:30:00.682Z,86.09
2023-04-18T16:32:27.069Z,85.89
2023-04-18T16:34:53.465Z,86.00
2023-04-18T16:37:19.853Z,85.99
2023-04-18T16:39:46.238Z,85.87
2023-04-18T16:42:15.363Z,85.96
2023-04-18T16:44:42.092Z,85.99
2023-04-18T16:47:08.560Z,85.92
2023-04-18T16:49:34.968Z,85.98
2023-04-18T16:52:01.323Z,85.95
2023-04-18T16:54:27.704Z,85.90
2023-04-18T16:56:54.055Z,85.92
2023-04-18T16:59:20.642Z,85.84
2023-04-18T17:01:47.043Z,85.87
2023-04-18T17:04:13.769Z,85.90
2023-04-18T17:06:40.288Z,85.89
2023-04-18T17:09:06.639Z,85.86
2023-04-18T17:11:32.991Z,85.87
2023-04-18T17:13:59.360Z,85.78
2023-04-18T17:16:25.736Z,85.75
2023-04-18T17:18:52.109Z,85.75
2023-04-18T17:21:18.681Z,85.76
2023-04-18T17:23:45.066Z,85.68
2023-04-18T17:26:11.489Z,85.78
2023-04-18T17:28:37.861Z,85.69
2023-04-18T17:31:04.255Z,85.68
2023-04-18T17:33:30.701Z,85.71
2023-04-18T17:35:57.061Z,85.75
2023-04-18T17:38:23.426Z,85.68
2023-04-18T17:40:49.794Z,85.66
2023-04-18T17:43:16.400Z,85.70
2023-04-18T17:45:42.794Z,85.68
2023-04-18T17:48:09.209Z,85.66
2023-04-18T17:50:35.644Z,85.91
2023-04-18T17:53:02.124Z,85.80
2023-04-18T17:55:28.512Z,85.92
2023-04-18T17:57:54.881Z,85.81
2023-04-18T18:00:21.263Z,85.78
2023-04-18T18:02:47.766Z,85.73
2023-04-18T18:05:14.471Z,85.80
2023-04-18T18:07:40.819Z,85.98
2023-04-18T18:10:07.591Z,85.74
2023-04-18T18:12:33.981Z,85.98
2023-04-18T18:15:00.372Z,85.90
2023-04-18T18:17:26.822Z,85.87
2023-04-18T18:19:53.177Z,85.97
2023-04-18T18:22:19.549Z,85.83
2023-04-18T18:24:45.924Z,85.91
2023-04-18T18:27:12.516Z,85.82
2023-04-18T18:29:38.882Z,85.87
2023-04-18T18:32:05.253Z,86.05
2023-04-18T18:34:31.618Z,85.91
2023-04-18T18:36:57.974Z,85.97
2023-04-18T18:39:24.334Z,86.07
2023-04-18T18:41:50.691Z,86.09
2023-04-18T18:44:17.091Z,86.04
2023-04-18T18:46:43.580Z,86.02
2023-04-18T18:49:09.989Z,86.02
2023-04-18T18:51:36.381Z,85.97
2023-04-18T18:54:02.782Z,85.97
2023-04-18T18:56:29.133Z,86.08
2023-04-18T18:58:55.720Z,86.06
2023-04-18T19:01:22.119Z,86.01
2023-04-18T19:03:48.680Z,86.09
2023-04-18T19:06:15.114Z,86.25
2023-04-18T19:08:41.459Z,86.19
2023-04-18T19:11:07.830Z,86.21
2023-04-18T19:13:34.181Z,86.29
2023-04-18T19:16:00.620Z,86.26
2023-04-18T19:18:27.014Z,86.27
2023-04-18T19:20:53.386Z,86.32
2023-04-18T19:23:21.999Z,86.22
2023-04-18T19:25:48.604Z,86.28
2023-04-18T19:28:14.958Z,86.33
2023-04-18T19:30:41.318Z,86.27
2023-04-18T19:33:07.828Z,86.37
2023-04-18T19:35:37.237Z,86.34
2023-04-18T19:38:04.240Z,86.33
2023-04-18T19:40:30.602Z,86.37
2023-04-18T19:42:56.967Z,86.26
2023-04-18T19:45:26.295Z,86.35
2023-04-18T19:47:52.690Z,86.38
2023-04-18T19:50:19.105Z,86.38
2023-04-18T19:52:45.719Z,86.31
2023-04-18T19:55:12.104Z,86.36
2023-04-18T19:57:38.527Z,86.33
2023-04-18T20:00:04.886Z,86.33
2023-04-18T20:02:31.340Z,86.36
2023-04-18T20:04:58.152Z,86.40
2023-04-18T20:07:26.129Z,86.39
2023-04-18T20:09:54.816Z,86.30
2023-04-18T20:12:21.196Z,86.30
2023-04-18T20:14:47.555Z,86.24
2023-04-18T20:17:13.932Z,86.30
2023-04-18T20:19:40.285Z,86.32
2023-04-18T20:22:06.643Z,86.41
2023-04-18T20:24:32.991Z,86.35
2023-04-18T20:26:59.348Z,86.29
2023-04-18T20:29:25.729Z,86.27
2023-04-18T20:31:52.313Z,86.36
2023-04-18T20:34:18.690Z,86.30
2023-04-18T20:36:45.060Z,86.28
2023-04-18T20:39:11.443Z,86.36
2023-04-18T20:41:37.846Z,86.33
2023-04-18T20:44:04.216Z,86.20
2023-04-18T20:46:30.607Z,86.24
2023-04-18T20:48:57.040Z,86.32
2023-04-18T20:51:23.410Z,86.25
2023-04-18T20:53:49.763Z,86.27
2023-04-18T20:56:16.131Z,86.28
2023-04-18T20:58:42.495Z,86.20
2023-04-18T21:01:08.924Z,86.21
2023-04-18T21:03:35.501Z,86.19
2023-04-18T21:06:02.020Z,86.25
2023-04-18T21:08:28.405Z,86.21
2023-04-18T21:10:57.067Z,86.19
2023-04-18T21:13:23.730Z,86.27
2023-04-18T21:15:50.144Z,86.31
2023-04-18T21:18:16.539Z,86.28
2023-04-18T21:20:42.918Z,86.26
2023-04-18T21:23:09.314Z,86.27
2023-04-18T21:25:35.688Z,86.19
2023-04-18T21:28:02.083Z,86.23
2023-04-18T21:30:28.462Z,86.25
2023-04-18T21:32:54.864Z,86.21
2023-04-18T21:35:24.091Z,86.30
2023-04-18T21:37:51.221Z,86.25
2023-04-18T21:40:17.603Z,86.23
2023-04-18T21:42:43.985Z,86.27
2023-04-18T21:45:10.368Z,86.38
2023-04-18T21:47:36.827Z,86.32
2023-04-18T21:50:03.222Z,86.37
2023-04-18T21:52:29.797Z,86.32
2023-04-18T21:54:56.135Z,86.32
2023-04-18T21:57:22.758Z,86.35
2023-04-18T21:59:49.113Z,86.40
2023-04-18T22:02:15.580Z,86.17
2023-04-18T22:04:42.037Z,86.36
2023-04-18T22:07:08.410Z,86.43
2023-04-18T22:09:34.771Z,86.36
2023-04-18T22:12:01.148Z,86.30
2023-04-18T22:14:27.722Z,86.37
2023-04-18T22:16:54.183Z,86.47
2023-04-18T22:19:20.666Z,86.64
2023-04-18T22:21:47.014Z,86.44
2023-04-18T22:24:13.577Z,86.45
2023-04-18T22:26:40.126Z,86.51
2023-04-18T22:29:06.518Z,86.59
2023-04-18T22:31:33.138Z,86.62
2023-04-18T22:33:59.464Z,86.59
2023-04-18T22:36:25.808Z,86.70
2023-04-18T22:38:52.160Z,86.69
2023-04-18T22:41:18.527Z,86.77
2023-04-18T22:43:45.151Z,86.69
2023-04-18T22:46:11.543Z,86.77
2023-04-18T22:48:37.904Z,86.74
2023-04-18T22:51:04.251Z,86.52
2023-04-18T22:53:30.572Z,86.67
2023-04-18T22:55:56.895Z,86.75
2023-04-18T22:58:23.250Z,86.74
2023-04-18T23:00:49.863Z,86.72
2023-04-18T23:03:16.281Z,86.48
2023-04-18T23:05:43.115Z,86.64
2023-04-18T23:08:09.504Z,86.61
2023-04-18T23:10:35.860Z,86.71
2023-04-18T23:13:02.329Z,86.46
2023-04-18T23:15:28.713Z,86.34
2023-04-18T23:17:55.199Z,86.16
2023-04-18T23:20:21.567Z,86.41
2023-04-18T23:22:48.160Z,86.23
2023-04-18T23:25:14.520Z,86.41
2023-04-18T23:27:40.853Z,86.06
2023-04-18T23:30:07.235Z,86.50
2023-04-18T23:32:33.724Z,86.09
2023-04-18T23:35:00.126Z,86.09
2023-04-18T23:37:26.498Z,86.33
2023-04-18T23:39:53.127Z,86.22
2023-04-18T23:42:19.462Z,86.44
2023-04-18T23:44:45.794Z,86.16
2023-04-18T23:47:12.201Z,85.97
2023-04-18T23:49:38.569Z,85.94
2023-04-18T23:52:04.926Z,85.81
2023-04-18T23:54:31.267Z,85.94
2023-04-18T23:56:57.847Z,85.80
2023-04-18T23:59:24.184Z,85.76
